createdAt,value
2023-05-21T00:01:28.486Z,57282.77
2023-05-21T00:03:58.970Z,57229.82
2023-05-21T00:06:29.750Z,57245.71
2023-05-21T00:09:00.177Z,57245.71
2023-05-21T00:11:32.021Z,57274.30
2023-05-21T00:14:02.499Z,57274.30
2023-05-21T00:16:33.389Z,57247.82
2023-05-21T00:19:03.784Z,57255.24
2023-05-21T00:21:34.150Z,57263.71
2023-05-21T00:24:06.788Z,57257.36
2023-05-21T00:26:37.005Z,57247.82
2023-05-21T00:29:07.387Z,57265.83
2023-05-21T00:31:37.876Z,57242.53
2023-05-21T00:34:08.285Z,57242.53
2023-05-21T00:36:38.858Z,57251.00
2023-05-21T00:39:09.217Z,57219.23
2023-05-21T00:41:39.700Z,57240.41
2023-05-21T00:44:10.346Z,57259.47
2023-05-21T00:46:41.493Z,57259.47
2023-05-21T00:49:17.963Z,57249.95
2023-05-21T00:51:48.925Z,57223.46
2023-05-21T00:54:19.647Z,57271.13
2023-05-21T00:56:51.386Z,57245.71
2023-05-21T00:59:21.864Z,57245.71
2023-05-21T01:01:53.430Z,57235.12
2023-05-21T01:04:26.919Z,57235.12
2023-05-21T01:06:57.316Z,57227.70
2023-05-21T01:09:28.592Z,57246.77
2023-05-21T01:11:59.662Z,57269.00
2023-05-21T01:14:31.061Z,57269.00
2023-05-21T01:17:02.527Z,57223.46
2023-05-21T01:19:33.822Z,57223.46
2023-05-21T01:22:08.499Z,57223.46
2023-05-21T01:24:39.004Z,57265.83
2023-05-21T01:27:09.208Z,57221.35
2023-05-21T01:29:39.551Z,57230.88
2023-05-21T01:32:28.367Z,57230.88
2023-05-21T01:35:20.238Z,57203.34
2023-05-21T01:37:53.684Z,57203.34
2023-05-21T01:40:42.074Z,57215.00
2023-05-21T01:43:14.431Z,57210.76
2023-05-21T01:45:46.714Z,57224.53
2023-05-21T01:48:38.200Z,57230.88
2023-05-21T01:51:08.846Z,57230.88
2023-05-21T01:53:39.442Z,57237.23
2023-05-21T01:56:09.831Z,57201.23
2023-05-21T01:58:40.803Z,57201.23
2023-05-21T02:01:11.206Z,57226.64
2023-05-21T02:03:41.836Z,57221.35
2023-05-21T02:06:12.200Z,57217.11
2023-05-21T02:08:42.590Z,57210.76
2023-05-21T02:11:13.074Z,57226.64
2023-05-21T02:13:43.542Z,57243.59
2023-05-21T02:16:13.997Z,57243.59
2023-05-21T02:18:44.436Z,57215.00
2023-05-21T02:21:14.721Z,57222.41
2023-05-21T02:23:45.290Z,57222.41
2023-05-21T02:26:15.603Z,57195.93
2023-05-21T02:28:45.898Z,57225.59
2023-05-21T02:31:16.279Z,57189.58
2023-05-21T02:33:47.388Z,57189.58
2023-05-21T02:36:17.984Z,57206.52
2023-05-21T02:38:48.210Z,57235.12
2023-05-21T02:41:18.575Z,57220.29
2023-05-21T02:43:49.195Z,57220.29
2023-05-21T02:46:19.559Z,57236.18
2023-05-21T02:48:50.138Z,57221.35
2023-05-21T02:51:20.507Z,57218.17
2023-05-21T02:53:50.934Z,57231.94
2023-05-21T02:56:21.433Z,57245.71
2023-05-21T02:58:52.035Z,57244.65
2023-05-21T03:01:22.377Z,57229.82
2023-05-21T03:03:52.646Z,57247.82
2023-05-21T03:06:22.960Z,57249.95
2023-05-21T03:08:53.509Z,57249.95
2023-05-21T03:11:23.811Z,57255.24
2023-05-21T03:13:54.461Z,57205.46
2023-05-21T03:16:24.869Z,57256.30
2023-05-21T03:18:55.662Z,57234.06
2023-05-21T03:21:26.364Z,57215.00
2023-05-21T03:23:57.088Z,57215.00
2023-05-21T03:26:29.282Z,57256.30
2023-05-21T03:29:00.200Z,57256.30
2023-05-21T03:31:30.616Z,57246.77
2023-05-21T03:34:00.913Z,57230.88
2023-05-21T03:36:31.561Z,57258.41
2023-05-21T03:39:01.908Z,57252.06
2023-05-21T03:41:32.710Z,57266.89
2023-05-21T03:44:03.007Z,57266.89
2023-05-21T03:46:33.934Z,57293.36
2023-05-21T03:49:04.402Z,57247.82
2023-05-21T03:51:35.090Z,57248.88
2023-05-21T03:54:05.423Z,57248.88
2023-05-21T03:56:35.739Z,57258.41
2023-05-21T03:59:06.124Z,57238.29
2023-05-21T04:01:36.610Z,57254.18
2023-05-21T04:04:07.131Z,57234.06
2023-05-21T04:06:38.426Z,57234.06
2023-05-21T04:09:08.791Z,57255.24
2023-05-21T04:11:39.789Z,57263.71
2023-05-21T04:14:10.393Z,57261.59
2023-05-21T04:16:40.814Z,57259.47
2023-05-21T04:19:11.251Z,57259.47
2023-05-21T04:21:41.826Z,57266.89
2023-05-21T04:24:12.126Z,57246.77
2023-05-21T04:26:42.548Z,57252.06
2023-05-21T04:29:12.947Z,57261.59
2023-05-21T04:31:45.859Z,57261.59
2023-05-21T04:34:16.718Z,57259.47
2023-05-21T04:36:47.696Z,57255.24
2023-05-21T04:39:18.012Z,57257.36
2023-05-21T04:41:48.355Z,57257.36
2023-05-21T04:44:22.060Z,57280.66
2023-05-21T04:46:52.310Z,57257.36
2023-05-21T04:49:23.019Z,57278.54
2023-05-21T04:52:00.816Z,57278.54
2023-05-21T04:54:32.714Z,57270.06
2023-05-21T04:57:17.032Z,57277.48
2023-05-21T05:00:12.392Z,57320.90
2023-05-21T05:02:43.390Z,57320.90
2023-05-21T05:05:13.921Z,57329.37
2023-05-21T05:07:44.736Z,57326.20
2023-05-21T05:10:15.194Z,57326.20
2023-05-21T05:12:45.617Z,57328.31
2023-05-21T05:15:16.090Z,57291.25
2023-05-21T05:17:49.502Z,57291.25
2023-05-21T05:20:19.751Z,57285.95
2023-05-21T05:22:50.125Z,57281.71
2023-05-21T05:25:20.816Z,57334.67
2023-05-21T05:27:51.258Z,57334.67
2023-05-21T05:30:21.811Z,57328.31
2023-05-21T05:32:52.364Z,57303.95
2023-05-21T05:35:22.954Z,57328.31
2023-05-21T05:37:53.182Z,57343.14
2023-05-21T05:40:23.506Z,57343.14
2023-05-21T05:42:54.041Z,57327.25
2023-05-21T05:45:25.914Z,57316.66
2023-05-21T05:47:56.831Z,57316.66
2023-05-21T05:50:28.465Z,57302.89
2023-05-21T05:53:03.233Z,57292.30
2023-05-21T05:55:40.941Z,57292.30
2023-05-21T05:58:11.221Z,57339.96
2023-05-21T06:04:06.076Z,57347.38
2023-05-21T06:06:36.581Z,57343.14
2023-05-21T06:09:07.072Z,57365.38
2023-05-21T06:11:40.574Z,57335.73
2023-05-21T06:14:10.887Z,57319.84
2023-05-21T06:16:41.286Z,57349.49
2023-05-21T06:19:11.772Z,57357.96
2023-05-21T06:21:42.169Z,57385.50
2023-05-21T06:24:14.805Z,57364.32
2023-05-21T06:26:45.028Z,57364.32
2023-05-21T06:29:15.645Z,57383.38
2023-05-21T06:31:46.422Z,57383.38
2023-05-21T06:34:20.415Z,57385.50
2023-05-21T06:36:51.792Z,57386.56
2023-05-21T06:39:22.233Z,57386.56
2023-05-21T06:41:52.693Z,57375.97
2023-05-21T06:44:23.294Z,57334.67
2023-05-21T06:46:53.746Z,57334.67
2023-05-21T06:49:30.266Z,57355.85
2023-05-21T06:52:04.759Z,57346.32
2023-05-21T06:57:58.842Z,57320.90
2023-05-21T07:00:37.195Z,57327.25
2023-05-21T07:03:19.361Z,57338.90
2023-05-21T07:05:49.400Z,57323.02
2023-05-21T07:08:22.578Z,57333.61
2023-05-21T07:10:53.053Z,57363.26
2023-05-21T07:13:26.185Z,57363.26
2023-05-21T07:15:56.543Z,57328.31
2023-05-21T07:18:27.039Z,57333.61
2023-05-21T07:20:57.450Z,57357.96
2023-05-21T07:23:31.507Z,57344.20
2023-05-21T07:26:02.193Z,57359.03
2023-05-21T07:28:33.088Z,57359.03
2023-05-21T07:31:03.505Z,57365.38
2023-05-21T07:33:34.615Z,57365.38
2023-05-21T07:36:05.690Z,57383.38
2023-05-21T07:38:37.175Z,57371.73
2023-05-21T07:41:07.878Z,57384.44
2023-05-21T07:43:38.637Z,57384.44
2023-05-21T07:46:08.994Z,57378.09
2023-05-21T07:48:39.424Z,57411.98
2023-05-21T07:51:11.448Z,57464.93
2023-05-21T07:53:42.050Z,57495.65
2023-05-21T07:56:12.393Z,57499.88
2023-05-21T07:58:42.740Z,57499.88
2023-05-21T08:01:17.776Z,57491.41
2023-05-21T08:03:48.266Z,57488.23
2023-05-21T08:06:18.942Z,57488.23
2023-05-21T08:08:49.165Z,57480.82
2023-05-21T08:11:19.631Z,57455.40
2023-05-21T08:13:50.153Z,57472.35
2023-05-21T08:16:21.063Z,57444.81
2023-05-21T08:18:51.716Z,57431.04
2023-05-21T08:21:22.845Z,57462.82
2023-05-21T08:23:56.365Z,57464.93
2023-05-21T08:26:27.694Z,57435.28
2023-05-21T08:28:58.020Z,57434.22
2023-05-21T08:31:28.428Z,57434.22
2023-05-21T08:33:58.981Z,57458.58
2023-05-21T08:36:29.447Z,57458.58
2023-05-21T08:38:59.696Z,57474.46
2023-05-21T08:41:33.811Z,57467.05
2023-05-21T08:44:06.771Z,57467.05
2023-05-21T08:46:38.764Z,57477.64
2023-05-21T08:49:12.292Z,57445.87
2023-05-21T08:51:46.036Z,57475.52
2023-05-21T08:54:16.614Z,57471.29
2023-05-21T08:56:47.949Z,57486.12
2023-05-21T08:59:20.664Z,57509.41
2023-05-21T09:01:52.450Z,57465.99
2023-05-21T09:04:24.277Z,57465.99
2023-05-21T09:06:55.773Z,57484.00
2023-05-21T09:12:14.586Z,57496.71
2023-05-21T09:14:46.620Z,57496.71
2023-05-21T09:17:17.347Z,57503.06
2023-05-21T09:20:07.247Z,57476.58
2023-05-21T09:22:41.944Z,57462.82
2023-05-21T09:25:18.246Z,57457.52
2023-05-21T09:27:50.550Z,57454.34
2023-05-21T09:30:25.288Z,57452.23
2023-05-21T09:32:58.885Z,57444.81
2023-05-21T09:35:29.390Z,57444.81
2023-05-21T09:37:59.896Z,57455.40
2023-05-21T09:40:30.399Z,57429.98
2023-05-21T09:43:00.895Z,57425.75
2023-05-21T09:45:31.634Z,57425.75
2023-05-21T09:48:03.919Z,57393.98
2023-05-21T09:50:36.310Z,57393.98
2023-05-21T09:53:10.043Z,57372.79
2023-05-21T09:55:41.130Z,57372.79
2023-05-21T09:58:11.792Z,57375.97
2023-05-21T10:00:43.793Z,57368.55
2023-05-21T10:03:16.623Z,57377.03
2023-05-21T10:05:47.126Z,57362.20
2023-05-21T10:08:21.926Z,57398.21
2023-05-21T10:10:52.182Z,57342.08
2023-05-21T10:13:26.011Z,57381.27
2023-05-21T10:16:20.031Z,57381.27
2023-05-21T10:18:51.115Z,57413.04
2023-05-21T10:21:22.806Z,57413.04
2023-05-21T10:23:55.890Z,57400.33
2023-05-21T10:26:28.206Z,57427.87
2023-05-21T10:28:59.094Z,57427.87
2023-05-21T10:31:34.263Z,57377.03
2023-05-21T10:34:14.602Z,57371.73
2023-05-21T10:36:46.443Z,57371.73
2023-05-21T10:39:18.987Z,57396.09
2023-05-21T10:42:08.843Z,57384.44
2023-05-21T10:45:04.490Z,57384.44
2023-05-21T10:48:01.709Z,57408.80
2023-05-21T10:50:58.957Z,57408.80
2023-05-21T10:53:41.441Z,57407.74
2023-05-21T10:56:31.098Z,57400.33
2023-05-21T10:59:16.985Z,57375.97
2023-05-21T11:02:06.044Z,57375.97
2023-05-21T11:04:36.963Z,57385.50
2023-05-21T11:07:07.421Z,57385.50
2023-05-21T11:09:39.028Z,57386.56
2023-05-21T11:12:09.941Z,57386.56
2023-05-21T11:14:42.206Z,57375.97
2023-05-21T11:17:15.144Z,57375.97
2023-05-21T11:19:47.342Z,57368.55
2023-05-21T11:22:25.550Z,57419.39
2023-05-21T11:25:00.257Z,57423.63
2023-05-21T11:27:38.699Z,57411.98
2023-05-21T11:30:17.706Z,57411.98
2023-05-21T11:33:11.254Z,57457.52
2023-05-21T11:35:57.106Z,57405.62
2023-05-21T11:38:30.620Z,57411.98
2023-05-21T11:44:23.520Z,57418.33
2023-05-21T11:46:56.183Z,57445.87
2023-05-21T11:49:28.935Z,57414.10
2023-05-21T11:52:01.522Z,57463.87
2023-05-21T11:54:33.582Z,57463.87
2023-05-21T11:59:56.196Z,55901.00
2023-05-21T12:02:34.408Z,57496.71
2023-05-21T12:05:08.526Z,57496.71
2023-05-21T12:10:19.925Z,57523.18
2023-05-21T12:13:07.349Z,57575.08
2023-05-21T12:13:47.783Z,57523.18
2023-05-21T12:15:41.885Z,57617.45
2023-05-21T12:18:16.362Z,57664.05
2023-05-21T12:20:57.898Z,57704.30
2023-05-21T12:23:48.597Z,57786.91
2023-05-21T12:26:21.489Z,57861.06
2023-05-21T12:29:03.348Z,57932.03
2023-05-21T12:31:33.835Z,57921.43
2023-05-21T12:34:32.682Z,58078.21
2023-05-21T12:37:17.178Z,58078.21
2023-05-21T12:40:05.063Z,58024.18
2023-05-21T12:42:41.154Z,57955.33
2023-05-21T12:45:13.704Z,57955.33
2023-05-21T12:47:47.044Z,57943.68
2023-05-21T12:50:20.600Z,58024.18
2023-05-21T12:53:02.220Z,58026.30
2023-05-21T12:55:33.224Z,58026.30
2023-05-21T12:58:10.789Z,58035.84
2023-05-21T13:00:54.091Z,58035.84
2023-05-21T13:03:24.508Z,58070.79
2023-05-21T13:06:13.911Z,58009.36
2023-05-21T13:08:51.120Z,58009.36
2023-05-21T13:11:24.594Z,58066.55
2023-05-21T13:13:55.010Z,58035.84
2023-05-21T13:16:32.101Z,58035.84
2023-05-21T13:19:13.304Z,58068.67
2023-05-21T13:21:43.738Z,58062.32
2023-05-21T13:24:16.834Z,58066.55
2023-05-21T13:26:56.715Z,58108.93
2023-05-21T13:29:28.030Z,58108.93
2023-05-21T13:31:58.426Z,57970.16
2023-05-21T13:34:31.739Z,57970.16
2023-05-21T13:37:02.853Z,57988.17
2023-05-21T13:39:34.584Z,57973.34
2023-05-21T13:42:05.161Z,57764.67
2023-05-21T13:44:39.398Z,57700.06
2023-05-21T13:47:11.407Z,57675.70
2023-05-21T13:49:42.449Z,57653.46
2023-05-21T13:52:13.436Z,57653.46
2023-05-21T13:54:44.432Z,57578.26
2023-05-21T14:00:08.288Z,57595.21
2023-05-21T14:02:39.025Z,57571.90
2023-05-21T14:05:11.695Z,57540.13
2023-05-21T14:07:42.384Z,57547.54
2023-05-21T14:10:13.315Z,57547.54
2023-05-21T14:12:44.554Z,57524.25
2023-05-21T14:15:15.177Z,57481.88
2023-05-21T14:17:48.963Z,57464.93
2023-05-21T14:20:19.447Z,57464.93
2023-05-21T14:22:57.313Z,57460.70
2023-05-21T14:26:13.212Z,57458.58
2023-05-21T14:28:33.322Z,57459.64
2023-05-21T14:31:08.499Z,57473.41
2023-05-21T14:33:39.462Z,57473.41
2023-05-21T14:36:09.906Z,57445.87
2023-05-21T14:38:40.417Z,57445.87
2023-05-21T14:41:11.273Z,57452.23
2023-05-21T14:44:07.371Z,57452.23
2023-05-21T14:46:44.119Z,57481.88
2023-05-21T14:49:29.416Z,57530.60
2023-05-21T14:52:08.504Z,57462.82
2023-05-21T15:08:13.426Z,55946.52
2023-05-21T15:10:45.556Z,57464.93
2023-05-21T15:13:16.209Z,57464.93
2023-05-21T15:15:46.728Z,57455.40
2023-05-21T15:18:47.641Z,57452.23
2023-05-21T15:21:18.749Z,57452.23
2023-05-21T15:23:50.887Z,57473.41
2023-05-21T15:40:26.876Z,55954.99
2023-05-21T15:43:23.610Z,57445.87
2023-05-21T15:46:02.630Z,57455.40
2023-05-21T15:51:30.440Z,57450.11
2023-05-21T15:54:00.776Z,57457.52
2023-05-21T15:59:45.758Z,57452.23
2023-05-21T16:02:24.793Z,57442.69
2023-05-21T16:05:36.441Z,57455.40
2023-05-21T16:08:12.329Z,57453.28
2023-05-21T16:13:28.732Z,57404.57
2023-05-21T16:16:05.317Z,57441.63
2023-05-21T16:31:59.364Z,55958.17
2023-05-21T16:34:29.742Z,57437.39
2023-05-21T16:37:07.505Z,57437.39
2023-05-21T16:39:45.620Z,57410.92
2023-05-21T16:42:19.046Z,57420.45
2023-05-21T16:44:53.182Z,57439.52
2023-05-21T16:47:29.297Z,57406.68
2023-05-21T16:49:59.772Z,57413.04
2023-05-21T16:52:30.274Z,57382.32
2023-05-21T16:55:09.377Z,57405.62
2023-05-21T16:57:55.084Z,57419.39
2023-05-21T17:00:29.320Z,57407.74
2023-05-21T17:03:07.868Z,57407.74
2023-05-21T17:05:51.127Z,57390.80
2023-05-21T17:08:23.607Z,57384.44
2023-05-21T17:17:12.550Z,57387.62
2023-05-21T17:19:51.927Z,57387.62
2023-05-21T17:22:33.743Z,57378.09
2023-05-21T17:25:07.193Z,57378.09
2023-05-21T17:27:40.585Z,57374.91
2023-05-21T17:30:57.888Z,57386.56
2023-05-21T17:33:13.758Z,57348.43
2023-05-21T17:35:50.528Z,57385.50
2023-05-21T17:38:24.242Z,57407.74
2023-05-21T17:41:12.369Z,57407.74
2023-05-21T17:43:45.181Z,57381.27
2023-05-21T17:46:17.742Z,57381.27
2023-05-21T17:48:56.407Z,57356.91
2023-05-21T17:51:31.681Z,57381.27
2023-05-21T17:54:02.176Z,57381.27
2023-05-21T17:56:40.056Z,57348.43
2023-05-21T17:59:13.467Z,57368.55
2023-05-21T18:04:45.401Z,57371.73
2023-05-21T18:07:29.941Z,57357.96
2023-05-21T18:09:56.352Z,57347.38
2023-05-21T18:12:30.822Z,57345.26
2023-05-21T18:15:01.312Z,57367.50
2023-05-21T18:17:31.875Z,57344.20
2023-05-21T18:20:03.902Z,57344.20
2023-05-21T18:22:34.781Z,57344.20
2023-05-21T18:25:07.187Z,57371.73
2023-05-21T18:27:37.676Z,57357.96
2023-05-21T18:30:11.840Z,57357.96
2023-05-21T18:32:44.530Z,57344.20
2023-05-21T18:35:16.863Z,57345.26
2023-05-21T18:37:51.288Z,57345.26
2023-05-21T18:40:22.191Z,57355.85
2023-05-21T18:43:00.753Z,57343.14
2023-05-21T18:45:34.438Z,57325.14
2023-05-21T18:48:05.955Z,57326.20
2023-05-21T18:50:36.567Z,57339.96
2023-05-21T18:53:08.382Z,57341.02
2023-05-21T18:55:41.290Z,57341.02
2023-05-21T18:58:13.870Z,57341.02
2023-05-21T19:00:44.218Z,57351.61
2023-05-21T19:03:15.316Z,57318.78
2023-05-21T19:05:47.548Z,57337.84
2023-05-21T19:08:19.409Z,57337.84
2023-05-21T19:11:14.923Z,57303.95
2023-05-21T19:13:48.447Z,57303.95
2023-05-21T19:16:33.635Z,57305.01
2023-05-21T19:19:14.540Z,57326.20
2023-05-21T19:21:50.870Z,57329.37
2023-05-21T19:24:34.941Z,57327.25
2023-05-21T19:27:16.893Z,57365.38
2023-05-21T19:30:00.054Z,57316.66
2023-05-21T19:32:46.536Z,57350.55
2023-05-21T19:39:29.461Z,57343.14
2023-05-21T19:41:56.578Z,57325.14
2023-05-21T19:58:08.988Z,57308.19
2023-05-21T20:01:57.772Z,57347.38
2023-05-21T20:03:25.381Z,57347.38
2023-05-21T20:05:57.597Z,57339.96
2023-05-21T20:08:29.580Z,57339.96
2023-05-21T20:11:01.258Z,57331.49
2023-05-21T20:13:34.339Z,57320.90
2023-05-21T20:16:13.585Z,57319.84
2023-05-21T20:18:51.208Z,57319.84
2023-05-21T20:21:23.663Z,57291.25
2023-05-21T20:23:54.432Z,57291.25
2023-05-21T20:26:24.789Z,57316.66
2023-05-21T20:29:00.334Z,57318.78
2023-05-21T20:31:46.024Z,57318.78
2023-05-21T20:34:11.916Z,57318.78
2023-05-21T20:36:45.483Z,57312.43
2023-05-21T20:39:17.453Z,57324.07
2023-05-21T20:41:49.290Z,57324.07
2023-05-21T20:44:21.102Z,57312.43
2023-05-21T20:46:55.058Z,57311.37
2023-05-21T20:49:28.180Z,57324.07
2023-05-21T20:51:58.614Z,57320.90
2023-05-21T20:54:29.561Z,57332.55
2023-05-21T20:56:59.940Z,57335.73
2023-05-21T20:59:30.153Z,57299.72
2023-05-21T21:02:00.875Z,57299.72
2023-05-21T21:04:31.979Z,57319.84
2023-05-21T21:07:02.306Z,57318.78
2023-05-21T21:09:38.347Z,57319.84
2023-05-21T21:12:24.604Z,57317.72
2023-05-21T21:14:43.606Z,57317.72
2023-05-21T21:17:14.038Z,57331.49
2023-05-21T21:19:44.478Z,57312.43
2023-05-21T21:22:16.327Z,57312.43
2023-05-21T21:24:47.730Z,57317.72
2023-05-21T21:27:19.676Z,57330.43
2023-05-21T21:29:50.133Z,57330.43
2023-05-21T21:32:22.938Z,57314.55
2023-05-21T21:34:53.551Z,57314.55
2023-05-21T21:37:23.841Z,57306.07
2023-05-21T21:39:54.198Z,57303.95
2023-05-21T21:42:24.867Z,57308.19
2023-05-21T21:44:55.302Z,57303.95
2023-05-21T21:47:26.862Z,57303.95
2023-05-21T21:49:59.184Z,57302.89
2023-05-21T21:52:29.908Z,57328.31
2023-05-21T21:55:00.254Z,57328.31
2023-05-21T21:57:30.969Z,57321.96
2023-05-21T22:00:02.546Z,57321.96
2023-05-21T22:02:35.128Z,57323.02
2023-05-21T22:05:06.812Z,57295.48
2023-05-21T22:07:37.586Z,57296.54
2023-05-21T22:10:08.351Z,57327.25
2023-05-21T22:12:41.596Z,57283.83
2023-05-21T22:15:21.137Z,57283.83
2023-05-21T22:17:51.687Z,57319.84
2023-05-21T22:20:23.284Z,57319.84
2023-05-21T22:22:55.382Z,57325.14
2023-05-21T22:25:26.374Z,57272.18
2023-05-21T22:27:56.631Z,57283.83
2023-05-21T22:30:26.857Z,57287.01
2023-05-21T22:32:57.550Z,57318.78
2023-05-21T22:35:27.988Z,57305.01
2023-05-21T22:37:58.375Z,57305.01
2023-05-21T22:40:28.842Z,57290.18
2023-05-21T22:42:59.935Z,57303.95
2023-05-21T22:45:31.139Z,57303.95
2023-05-21T22:48:01.520Z,57285.95
2023-05-21T22:50:33.385Z,57296.54
2023-05-21T22:53:03.934Z,57312.43
2023-05-21T22:55:36.490Z,57306.07
2023-05-21T22:58:06.859Z,57288.07
2023-05-21T23:00:37.499Z,57323.02
2023-05-21T23:03:09.754Z,57282.77
2023-05-21T23:05:40.267Z,57262.65
2023-05-21T23:08:10.688Z,57259.47
2023-05-21T23:10:42.435Z,57300.78
2023-05-21T23:13:15.559Z,57284.89
2023-05-21T23:15:45.961Z,57284.89
2023-05-21T23:18:16.206Z,57288.07
2023-05-21T23:20:46.792Z,57291.25
2023-05-21T23:23:17.271Z,57293.36
2023-05-21T23:25:47.605Z,57293.36
2023-05-21T23:28:19.976Z,57277.48
2023-05-21T23:30:50.065Z,57299.72
2023-05-21T23:33:20.534Z,57289.13
2023-05-21T23:35:51.010Z,57289.13
2023-05-21T23:38:21.350Z,57297.60
2023-05-21T23:40:52.053Z,57306.07
2023-05-21T23:43:22.428Z,57282.77
2023-05-21T23:45:52.746Z,57312.43
2023-05-21T23:48:23.115Z,57312.43
2023-05-21T23:50:53.519Z,57298.66
2023-05-21T23:53:24.627Z,57303.95
2023-05-21T23:55:57.550Z,57303.95
2023-05-21T23:58:27.945Z,57296.54
